Terminal Aerodrome Forecast
Issued by NWS Sterling, VA

Current Version | Previous Version | Graphics & Text | Print | Product List | Glossary On
Versions: 1 2 3 4 5 6 7 8 9 10 11 12 13 14 15 16
445
FTUS41 KLWX 220538
TAFMRB
TAF
KMRB 220538Z 2206/2306 VRB03KT P6SM SCT250
     FM220900 00000KT 5SM BR SCT250
     FM221500 21006KT P6SM SCT250
     FM221900 22010G18KT P6SM BKN050
     FM230000 23009KT P6SM -SHRA VCTS BKN050CB=

USA.gov is the U.S. government's official web portal to all federal, state and local government web resources and services.